createdAt,value
2018-12-24T00:04:24.275Z,2.00
2018-12-24T00:09:20.295Z,3.70
2018-12-24T00:14:16.316Z,3.63
2018-12-24T00:19:12.331Z,5.93
2018-12-24T00:24:08.346Z,3.83
2018-12-24T00:29:04.363Z,4.50
2018-12-24T00:34:00.384Z,4.17
2018-12-24T00:38:56.395Z,3.17
2018-12-24T00:43:52.421Z,3.47
2018-12-24T00:48:48.440Z,4.03
2018-12-24T00:53:44.463Z,3.10
2018-12-24T00:58:41.495Z,2.90
2018-12-24T01:03:37.509Z,2.90
2018-12-24T01:08:33.531Z,6.33
2018-12-24T01:13:29.545Z,5.07
2018-12-24T01:18:25.565Z,3.30
2018-12-24T01:23:21.586Z,5.20
2018-12-24T01:28:18.364Z,9.20
2018-12-24T01:33:14.438Z,7.87
2018-12-24T01:38:10.463Z,5.63
2018-12-24T01:43:06.476Z,13.77
2018-12-24T01:48:02.497Z,6.70
2018-12-24T01:52:58.518Z,9.50
2018-12-24T01:57:55.477Z,9.60
2018-12-24T02:02:51.493Z,8.83
2018-12-24T02:07:47.509Z,15.90
2018-12-24T02:12:43.496Z,6.37
2018-12-24T02:17:39.520Z,11.10
2018-12-24T02:22:35.533Z,8.17
2018-12-24T02:27:31.550Z,6.60
2018-12-24T02:32:27.571Z,5.40
2018-12-24T02:37:23.590Z,8.90
2018-12-24T02:42:20.055Z,5.07
2018-12-24T02:47:16.080Z,16.30
2018-12-24T02:52:12.094Z,7.33
2018-12-24T02:57:08.098Z,4.40
2018-12-24T03:02:04.224Z,4.20
2018-12-24T03:07:00.238Z,3.23
2018-12-24T03:11:56.265Z,5.47
2018-12-24T03:16:52.383Z,2.93
2018-12-24T03:21:48.403Z,8.37
2018-12-24T03:26:44.421Z,7.90
2018-12-24T03:31:40.446Z,8.07
2018-12-24T03:36:36.458Z,6.10
2018-12-24T03:41:32.470Z,19.73
2018-12-24T03:46:28.490Z,12.80
2018-12-24T03:51:24.518Z,8.57
2018-12-24T03:56:20.544Z,5.87
2018-12-24T04:01:16.554Z,7.13
2018-12-24T04:06:12.562Z,5.77
2018-12-24T04:11:08.596Z,4.27
2018-12-24T04:16:04.595Z,8.83
2018-12-24T04:21:00.619Z,5.73
2018-12-24T04:25:56.637Z,6.27
2018-12-24T04:30:52.641Z,6.23
2018-12-24T04:35:48.681Z,8.07
2018-12-24T04:40:44.683Z,7.67
2018-12-24T04:45:40.701Z,3.43
2018-12-24T04:50:36.717Z,3.00
2018-12-24T04:55:32.731Z,2.40
2018-12-24T05:00:28.751Z,7.00
2018-12-24T05:05:24.763Z,3.83
2018-12-24T05:10:20.779Z,6.90
2018-12-24T05:15:16.794Z,4.40
2018-12-24T05:20:12.820Z,3.80
2018-12-24T05:25:08.840Z,8.77
2018-12-24T05:30:04.957Z,3.00
2018-12-24T05:35:00.971Z,5.10
2018-12-24T05:39:56.990Z,2.60
2018-12-24T05:44:53.019Z,11.80
2018-12-24T05:49:49.038Z,3.93
2018-12-24T05:54:45.054Z,4.20
2018-12-24T05:59:41.078Z,8.43
2018-12-24T06:04:37.092Z,4.47
2018-12-24T06:09:33.113Z,5.00
2018-12-24T06:14:29.155Z,6.27
2018-12-24T06:19:25.142Z,5.20
2018-12-24T06:24:21.165Z,4.10
2018-12-24T06:29:17.238Z,7.67
2018-12-24T06:34:13.258Z,4.43
2018-12-24T06:39:09.273Z,2.67
2018-12-24T06:44:06.801Z,5.60
2018-12-24T06:49:03.214Z,7.23
2018-12-24T06:53:59.228Z,6.20
2018-12-24T06:58:55.243Z,2.67
2018-12-24T07:03:51.262Z,2.17
2018-12-24T07:08:47.278Z,3.80
2018-12-24T07:13:43.300Z,4.87
2018-12-24T07:18:39.338Z,4.47
2018-12-24T07:23:35.363Z,11.90
2018-12-24T07:28:32.083Z,6.43
2018-12-24T07:33:28.066Z,7.53
2018-12-24T07:43:31.963Z,7.83
2018-12-24T07:48:27.965Z,11.23
2018-12-24T07:53:24.000Z,8.40
2018-12-24T07:58:20.748Z,9.27
2018-12-24T08:03:16.775Z,8.33
2018-12-24T08:08:12.809Z,10.60
2018-12-24T08:13:08.837Z,11.53
2018-12-24T08:18:12.686Z,12.40
2018-12-24T08:23:08.724Z,8.37
2018-12-24T08:28:25.187Z,6.00
2018-12-24T08:33:21.403Z,5.63
2018-12-24T08:38:17.436Z,6.90
2018-12-24T08:43:13.498Z,4.37
2018-12-24T08:48:09.526Z,8.00
2018-12-24T08:53:05.550Z,6.27
2018-12-24T08:58:22.213Z,8.40
2018-12-24T09:03:18.407Z,4.40
2018-12-24T09:08:14.522Z,8.10
2018-12-24T09:13:10.556Z,2.03
2018-12-24T09:18:06.590Z,5.57
2018-12-24T09:23:02.625Z,2.60
2018-12-24T09:27:59.321Z,1.33
2018-12-24T09:32:55.460Z,1.40
2018-12-24T09:37:51.493Z,2.67
2018-12-24T09:42:47.527Z,2.33
2018-12-24T09:47:43.553Z,2.87
2018-12-24T09:52:39.690Z,3.63
2018-12-24T09:58:17.751Z,3.33
2018-12-24T10:03:14.829Z,3.20
2018-12-24T10:08:53.032Z,3.73
2018-12-24T10:13:49.283Z,3.20
2018-12-24T10:18:45.890Z,3.23
2018-12-24T10:24:23.817Z,4.90
2018-12-24T10:29:20.440Z,3.97
2018-12-24T10:34:17.089Z,3.83
2018-12-24T10:39:33.523Z,4.83
2018-12-24T10:44:52.056Z,3.93
2018-12-24T10:49:48.925Z,4.53
2018-12-24T10:54:45.966Z,3.10
2018-12-24T11:00:24.110Z,3.80
2018-12-24T11:05:20.294Z,4.63
2018-12-24T11:10:16.329Z,4.07
2018-12-24T11:26:13.397Z,8.17
2018-12-24T11:36:34.842Z,9.43
2018-12-24T11:41:31.610Z,3.30
2018-12-24T11:46:30.582Z,8.40
2018-12-24T11:51:27.772Z,4.30
2018-12-24T11:56:24.684Z,7.20
2018-12-24T12:01:21.766Z,7.17
2018-12-24T12:06:38.551Z,6.00
2018-12-24T12:11:35.199Z,3.93
2018-12-24T12:16:51.377Z,3.00
2018-12-24T12:21:48.265Z,5.60
2018-12-24T12:26:46.448Z,9.13
2018-12-24T12:31:43.310Z,6.73
2018-12-24T12:36:40.274Z,6.73
2018-12-24T12:41:37.142Z,6.80
2018-12-24T12:46:34.037Z,8.70
2018-12-24T12:52:12.103Z,7.90
2018-12-24T12:57:28.788Z,7.57
2018-12-24T13:02:25.673Z,5.40
2018-12-24T13:07:24.061Z,6.30
2018-12-24T13:12:22.323Z,5.77
2018-12-24T13:23:03.251Z,4.70
2018-12-24T13:28:20.007Z,3.27
2018-12-24T13:33:36.734Z,3.27
2018-12-24T13:38:34.470Z,3.80
2018-12-24T13:43:31.382Z,3.50
2018-12-24T13:49:09.584Z,5.70
2018-12-24T13:54:06.835Z,5.63
2018-12-24T14:04:51.559Z,2.63
2018-12-24T14:15:34.955Z,11.03
2018-12-24T14:20:31.459Z,5.23
2018-12-24T14:26:09.383Z,4.50
2018-12-24T14:31:06.987Z,3.87
2018-12-24T14:36:03.844Z,2.80
2018-12-24T14:41:00.629Z,5.57
2018-12-24T14:46:25.398Z,5.40
2018-12-24T14:51:17.022Z,4.17
2018-12-24T14:56:13.767Z,5.40
2018-12-24T15:01:10.594Z,5.73
2018-12-24T15:06:10.107Z,6.53
2018-12-24T15:11:27.180Z,5.80
2018-12-24T15:16:43.873Z,7.03
2018-12-24T15:27:42.287Z,10.87
2018-12-24T15:38:25.545Z,9.90
2018-12-24T15:44:02.988Z,7.40
2018-12-24T15:48:59.579Z,8.43
2018-12-24T15:54:37.961Z,6.87
2018-12-24T15:59:54.642Z,5.50
2018-12-24T16:04:55.862Z,8.30
2018-12-24T16:09:58.250Z,7.30
2018-12-24T16:14:55.048Z,5.03
2018-12-24T16:20:31.757Z,4.73
2018-12-24T16:25:28.973Z,4.10
2018-12-24T16:30:25.640Z,6.67
2018-12-24T16:35:22.458Z,6.73
2018-12-24T16:46:38.087Z,4.10
2018-12-24T16:51:56.612Z,7.30
2018-12-24T16:57:34.760Z,6.70
2018-12-24T17:03:12.891Z,9.27
2018-12-24T17:13:15.959Z,6.20
2018-12-24T17:24:01.923Z,9.37
2018-12-24T17:29:45.035Z,12.87
2018-12-24T17:40:39.625Z,13.80
2018-12-24T17:45:36.299Z,12.93
2018-12-24T17:50:52.944Z,8.07
2018-12-24T17:55:49.848Z,12.40
2018-12-24T18:00:49.005Z,10.47
2018-12-24T18:11:10.110Z,12.03
2018-12-24T18:16:06.930Z,10.40
2018-12-24T18:26:06.521Z,12.90
2018-12-24T18:31:03.462Z,12.63
2018-12-24T18:36:41.983Z,15.50
2018-12-24T18:41:38.679Z,10.10
2018-12-24T18:46:35.393Z,8.43
2018-12-24T18:51:32.171Z,11.80
2018-12-24T19:01:40.002Z,10.60
2018-12-24T19:11:45.065Z,8.73
2018-12-24T19:16:42.077Z,10.73
2018-12-24T19:27:02.656Z,7.90
2018-12-24T19:32:00.236Z,7.83
2018-12-24T19:37:17.564Z,8.57
2018-12-24T19:42:15.038Z,10.60
2018-12-24T19:52:57.715Z,9.43
2018-12-24T19:57:54.610Z,9.90
2018-12-24T20:03:36.148Z,18.13
2018-12-24T20:08:34.338Z,17.37
2018-12-24T20:13:31.113Z,10.50
2018-12-24T20:18:28.027Z,11.07
2018-12-24T20:23:25.227Z,12.60
2018-12-24T20:38:37.165Z,11.70
2018-12-24T20:43:33.284Z,13.80
2018-12-24T20:48:29.414Z,9.83
2018-12-24T20:58:50.112Z,11.53
2018-12-24T21:14:35.573Z,10.00
2018-12-24T21:20:13.578Z,18.60
2018-12-24T21:25:10.762Z,13.57
2018-12-24T21:30:06.883Z,9.20
2018-12-24T21:35:44.821Z,15.80
2018-12-24T21:40:41.767Z,9.67
2018-12-24T21:45:38.963Z,13.07
2018-12-24T21:51:17.343Z,10.43
2018-12-24T21:56:33.804Z,12.80
2018-12-24T22:01:30.209Z,9.33
2018-12-24T22:07:08.282Z,11.20
2018-12-24T22:12:24.921Z,9.17
2018-12-24T22:17:21.899Z,12.30
2018-12-24T22:22:17.929Z,10.63
2018-12-24T22:27:55.980Z,12.43
2018-12-24T22:32:52.104Z,11.60
2018-12-24T22:37:48.875Z,12.20
2018-12-24T22:42:44.895Z,9.83
2018-12-24T22:47:40.941Z,10.60
2018-12-24T22:52:57.385Z,11.57
2018-12-24T23:03:09.522Z,13.07
2018-12-24T23:08:06.259Z,11.23
2018-12-24T23:13:02.375Z,11.63
2018-12-24T23:17:58.403Z,16.27
2018-12-24T23:22:54.418Z,11.97
2018-12-24T23:32:58.634Z,12.33
2018-12-24T23:37:54.654Z,15.63
2018-12-24T23:42:51.615Z,13.43
2018-12-24T23:47:47.631Z,12.63
2018-12-24T23:52:43.650Z,12.77
2018-12-24T23:58:01.381Z,12.53
